Time;durP1;ratioP1;P1;durP2;ratioP2;P2;SDS_P1;SDS_P2;PMS_P1;PMS_P2;Temp;Humidity;BMP_temperature;BMP_pressure;BME280_temperature;BME280_humidity;BME280_pressure;Samples;Min_cycle;Max_cycle;Signal;HPM_P1;HPM_P2
2023/09/16 00:00:23;;;;;;;5.47;4.60;;;14.70;99.90;;;-141.84;75.66;20439.84;4987324;28;20220;-62
2023/09/16 00:02:52;;;;;;;5.40;4.90;;;14.70;99.90;;;-141.84;75.17;20407.34;4979519;28;20251;-61
2023/09/16 00:05:23;;;;;;;5.18;4.68;;;14.70;99.90;;;-141.84;75.65;20370.75;4985592;28;20224;-61
2023/09/16 00:07:52;;;;;;;5.15;4.65;;;14.70;99.90;;;-141.84;75.08;20435.78;4979575;28;20658;-60
2023/09/16 00:10:24;;;;;;;5.20;4.63;;;14.70;99.90;;;-141.84;75.44;20395.13;5007804;28;20321;-60
2023/09/16 00:12:52;;;;;;;6.38;4.95;;;14.70;99.90;;;-141.84;75.52;20411.41;4997584;28;20269;-60
2023/09/16 00:15:22;;;;;;;6.65;5.10;;;14.70;99.90;;;-141.84;75.55;20380.91;4986836;28;20219;-60
2023/09/16 00:17:50;;;;;;;5.70;5.20;;;14.70;99.90;;;-141.84;76.06;20374.81;4986819;28;20253;-61
2023/09/16 00:20:25;;;;;;;6.05;4.70;;;14.60;99.90;;;-141.84;76.30;20374.81;4986926;28;20227;-61
2023/09/16 00:22:53;;;;;;;5.45;4.90;;;14.60;99.90;;;-141.84;76.53;20324.00;4980903;28;20329;-62
2023/09/16 00:25:23;;;;;;;5.68;4.75;;;14.60;99.90;;;-141.84;76.65;20362.63;4985297;28;20720;-61
2023/09/16 00:27:52;;;;;;;5.22;4.82;;;14.50;99.90;;;-141.84;76.88;20342.28;4985093;28;20242;-59
2023/09/16 00:30:21;;;;;;;5.97;4.88;;;14.50;99.90;;;-141.84;77.12;20336.19;4986125;28;20204;-61
2023/09/16 00:32:49;;;;;;;5.00;4.60;;;14.50;99.90;;;-141.84;77.49;20319.94;4978195;28;20714;-61
2023/09/16 00:35:18;;;;;;;5.68;5.00;;;14.40;99.90;;;-141.84;77.68;20317.91;4987431;28;20234;-60
2023/09/16 00:37:47;;;;;;;5.68;5.10;;;14.40;99.90;;;-141.84;77.88;20313.84;4986057;28;20265;-60
2023/09/16 00:40:15;;;;;;;5.78;5.25;;;14.40;99.90;;;-141.84;77.85;20291.47;4986687;28;20640;-60
2023/09/16 00:42:44;;;;;;;7.88;5.57;;;14.30;99.90;;;-141.84;78.08;20267.09;4977350;28;20299;-60
2023/09/16 00:45:14;;;;;;;5.20;4.70;;;14.30;99.90;;;-141.84;78.17;20279.28;4985041;28;20203;-61
2023/09/16 00:47:42;;;;;;;5.60;5.10;;;14.30;99.90;;;-141.84;78.48;20277.25;4990049;28;20288;-60
2023/09/16 00:50:13;;;;;;;6.10;5.50;;;14.30;99.90;;;-141.84;78.11;20279.28;5007316;28;20235;-61
2023/09/16 00:52:46;;;;;;;5.68;5.07;;;14.30;99.90;;;-141.84;78.21;20269.13;4983404;28;20223;-60
2023/09/16 00:55:15;;;;;;;6.45;5.05;;;14.30;99.90;;;-141.84;78.12;20248.78;4985034;28;20230;-60
2023/09/16 00:57:51;;;;;;;6.05;5.25;;;14.30;99.90;;;-141.84;78.01;20254.88;4985887;28;20210;-61
2023/09/16 01:00:26;;;;;;;6.38;5.28;;;14.30;99.90;;;-141.84;77.99;20244.72;4985887;28;20262;-60
2023/09/16 01:02:57;;;;;;;6.55;5.30;;;14.30;99.90;;;-141.84;77.90;20248.78;4979191;28;20234;-60
2023/09/16 01:05:30;;;;;;;5.57;5.00;;;14.30;99.90;;;-141.84;77.99;20275.22;4984496;28;20230;-60
2023/09/16 01:08:04;;;;;;;6.05;5.45;;;14.30;99.90;;;-141.84;78.18;20242.69;4986123;28;20240;-60
2023/09/16 01:10:33;;;;;;;6.00;5.43;;;14.20;99.90;;;-141.84;78.25;20281.31;4977418;28;20361;-61
2023/09/16 01:13:03;;;;;;;6.15;5.40;;;14.30;99.90;;;-141.84;78.79;20263.00;4985632;28;20282;-61
2023/09/16 01:15:38;;;;;;;7.13;6.43;;;14.20;99.90;;;-141.84;78.83;20234.56;4984852;28;20207;-63
2023/09/16 01:18:15;;;;;;;6.55;5.55;;;14.20;99.90;;;-141.84;78.64;20252.84;4992046;28;20673;-60
2023/09/16 01:20:45;;;;;;;6.47;5.57;;;14.20;99.90;;;-141.84;78.84;20222.38;4996565;28;20323;-61
2023/09/16 01:23:13;;;;;;;6.97;5.68;;;14.20;99.90;;;-141.84;79.03;20208.13;4988246;28;20667;-60
2023/09/16 01:25:44;;;;;;;5.88;5.38;;;14.10;99.90;;;-141.84;78.89;20226.44;4986194;28;20317;-60
2023/09/16 01:28:13;;;;;;;6.22;5.60;;;14.10;99.90;;;-141.84;78.54;20258.94;4985258;28;20239;-61
2023/09/16 01:30:48;;;;;;;6.80;5.43;;;14.10;99.90;;;-141.84;78.61;20263.00;4979143;28;20279;-61
2023/09/16 01:33:24;;;;;;;6.20;5.65;;;14.20;99.90;;;-141.84;78.62;20230.50;4986949;28;20737;-61
2023/09/16 01:36:03;;;;;;;5.80;5.30;;;14.10;99.90;;;-141.84;78.91;20208.13;4985361;28;20234;-60
2023/09/16 01:38:33;;;;;;;5.90;5.40;;;14.10;99.90;;;-141.84;78.89;20252.84;4978115;28;20318;-60
2023/09/16 01:41:07;;;;;;;6.07;5.47;;;14.10;99.90;;;-141.84;79.17;20183.75;4984617;28;20238;-61
2023/09/16 01:43:37;;;;;;;6.00;5.50;;;14.10;99.90;;;-141.84;78.81;20234.56;4984914;28;20242;-59
2023/09/16 01:46:06;;;;;;;6.78;6.18;;;14.10;99.90;;;-141.84;79.11;20220.34;4986897;28;20239;-61
2023/09/16 01:48:34;;;;;;;5.78;5.28;;;14.10;99.90;;;-141.84;79.51;20216.25;4989991;28;20252;-61
2023/09/16 01:51:20;;;;;;;7.22;5.72;;;14.00;99.90;;;-141.84;79.83;20187.81;5002738;28;20207;-61
2023/09/16 01:53:49;;;;;;;7.22;6.53;;;14.00;99.90;;;-141.84;79.81;20202.03;4985488;28;20608;-60
2023/09/16 01:56:23;;;;;;;7.45;5.93;;;14.00;99.90;;;-141.84;79.73;20197.97;4975476;28;20408;-61
2023/09/16 01:58:51;;;;;;;6.80;6.20;;;14.00;99.90;;;-141.84;79.93;20214.22;4957803;28;20258;-60
2023/09/16 02:01:20;;;;;;;6.57;5.97;;;14.00;99.90;;;-141.84;80.25;20191.88;4966881;28;20236;-60
2023/09/16 02:03:48;;;;;;;6.50;5.90;;;13.90;99.90;;;-141.84;80.50;20171.56;4966631;28;20211;-59
2023/09/16 02:06:16;;;;;;;6.65;6.05;;;13.90;99.90;;;-141.84;80.69;20177.66;4965721;28;20303;-61
2023/09/16 02:08:45;;;;;;;7.45;6.57;;;13.90;99.90;;;-141.84;80.88;20169.53;4974056;28;20249;-61
2023/09/16 02:11:13;;;;;;;6.93;6.32;;;13.90;99.90;;;-141.84;80.82;20137.00;4985928;28;20744;-60
2023/09/16 02:13:44;;;;;;;7.90;6.15;;;13.90;99.90;;;-141.84;81.13;20157.31;4984111;28;20318;-60
2023/09/16 02:16:13;;;;;;;6.78;6.18;;;13.90;99.90;;;-141.84;80.84;20171.56;4985226;28;20302;-62
2023/09/16 02:18:41;;;;;;;7.10;6.40;;;13.90;99.90;;;-141.84;80.68;20171.56;4988168;28;20222;-61
2023/09/16 02:21:09;;;;;;;7.13;6.43;;;13.90;99.90;;;-141.84;81.20;20197.97;5002900;28;20706;-61
2023/09/16 02:23:38;;;;;;;7.22;6.40;;;13.90;99.90;;;-141.84;81.07;20159.34;4984862;28;20342;-63
2023/09/16 02:26:06;;;;;;;7.30;6.60;;;13.90;99.90;;;-141.84;81.57;20145.13;4984994;28;20793;-60
2023/09/16 02:28:34;;;;;;;7.70;7.00;;;13.90;99.90;;;-141.84;81.79;20141.06;4977587;28;20659;-61
2023/09/16 02:31:03;;;;;;;7.20;6.50;;;13.80;99.90;;;-141.84;81.50;20147.16;4984288;28;20234;-60
2023/09/16 02:33:32;;;;;;;7.50;6.80;;;13.80;99.90;;;-141.84;81.53;20147.16;4984488;28;20235;-60
2023/09/16 02:36:01;;;;;;;8.02;7.22;;;13.80;99.90;;;-141.84;81.11;20155.28;4984534;28;20219;-60
2023/09/16 02:38:29;;;;;;;8.43;7.63;;;13.90;99.90;;;-141.84;81.16;20161.38;4982116;28;20644;-60
2023/09/16 02:40:57;;;;;;;7.32;6.63;;;13.80;99.90;;;-141.84;81.37;20139.03;4982586;28;20278;-61
2023/09/16 02:43:31;;;;;;;7.07;6.40;;;13.90;99.90;;;-141.84;81.71;20106.50;4984746;28;20262;-60
2023/09/16 02:46:04;;;;;;;7.30;6.60;;;13.80;99.90;;;-141.84;81.87;20128.88;4986208;28;20242;-60
2023/09/16 02:48:32;;;;;;;7.55;6.85;;;13.80;99.90;;;-141.84;82.21;20094.31;4988151;28;20211;-61
2023/09/16 02:51:02;;;;;;;8.10;7.40;;;13.80;99.90;;;-141.84;81.78;20116.66;5000675;28;20223;-60
2023/09/16 02:53:31;;;;;;;8.20;7.15;;;13.80;99.90;;;-141.84;81.87;20134.97;4983041;28;20281;-60
2023/09/16 02:56:03;;;;;;;7.55;6.85;;;13.80;99.90;;;-141.84;81.71;20110.56;4984733;28;20650;-59
2023/09/16 02:58:32;;;;;;;7.18;6.55;;;13.80;99.90;;;-141.84;81.95;20116.66;4978994;28;20327;-59
2023/09/16 03:01:10;;;;;;;7.70;6.97;;;13.80;99.90;;;-141.84;81.84;20132.94;4985593;28;20295;-61
2023/09/16 03:03:43;;;;;;;7.75;7.00;;;13.80;99.90;;;-141.84;82.23;20098.38;4984031;28;20211;-60
2023/09/16 03:06:12;;;;;;;7.97;7.22;;;13.80;99.90;;;-141.84;82.41;20110.56;4985604;28;20211;-60
2023/09/16 03:08:44;;;;;;;7.93;7.22;;;13.80;99.90;;;-141.84;82.09;20092.28;4974416;28;20299;-61
2023/09/16 03:11:13;;;;;;;8.25;7.45;;;13.70;99.90;;;-141.84;82.48;20098.38;4985290;28;20246;-61
2023/09/16 03:13:42;;;;;;;7.97;7.18;;;13.70;99.90;;;-141.84;83.04;20055.69;4983741;28;20266;-61
2023/09/16 03:16:18;;;;;;;8.10;7.40;;;13.70;99.90;;;-141.84;83.11;20076.03;4984661;28;20789;-61
2023/09/16 03:18:48;;;;;;;7.97;7.27;;;13.60;99.90;;;-141.84;83.40;20057.72;4988851;28;20301;-60
2023/09/16 03:21:19;;;;;;;7.65;6.95;;;13.70;99.90;;;-141.84;83.71;20045.53;5001552;28;20239;-60
2023/09/16 03:23:47;;;;;;;7.97;7.28;;;13.60;99.90;;;-141.84;83.83;20008.94;4984376;28;20466;-60
2023/09/16 03:26:16;;;;;;;8.43;7.63;;;13.50;99.90;;;-141.84;84.23;20045.53;4985995;28;20569;-61
2023/09/16 03:28:46;;;;;;;8.80;8.00;;;13.50;99.90;;;-141.84;84.34;20004.88;4981338;28;20239;-61
2023/09/16 03:31:16;;;;;;;8.85;8.05;;;13.50;99.90;;;-141.84;84.21;20010.97;4986338;28;20239;-61
2023/09/16 03:33:45;;;;;;;8.73;7.38;;;13.50;99.90;;;-141.84;84.22;20013.00;4987541;28;20652;-61
2023/09/16 03:36:13;;;;;;;8.83;7.93;;;13.50;99.90;;;-141.84;83.65;20049.59;4986693;28;20583;-60
2023/09/16 03:38:49;;;;;;;8.82;7.95;;;13.50;99.90;;;-141.84;83.68;20037.41;4979376;28;20273;-60
2023/09/16 03:41:18;;;;;;;8.98;7.90;;;13.50;99.90;;;-141.84;83.80;20023.19;4987417;28;20230;-61
2023/09/16 03:43:46;;;;;;;8.93;8.02;;;13.50;99.90;;;-141.84;84.09;20019.13;4986904;28;20264;-60
2023/09/16 03:46:23;;;;;;;8.65;7.85;;;13.50;99.90;;;-141.84;84.37;20031.31;4987146;28;20235;-61
2023/09/16 03:48:52;;;;;;;8.50;7.65;;;13.40;99.90;;;-141.84;84.39;20008.94;4991455;28;22959;-59
2023/09/16 03:51:20;;;;;;;8.13;7.33;;;13.50;99.90;;;-141.84;84.59;20010.97;5002032;28;20254;-60
2023/09/16 03:53:49;;;;;;;8.87;7.97;;;13.40;99.90;;;-141.84;84.98;19990.66;4985784;28;20746;-59
2023/09/16 03:56:17;;;;;;;9.23;8.40;;;13.40;99.90;;;-141.84;84.96;19970.34;4986607;28;20227;-60
2023/09/16 03:58:45;;;;;;;8.82;7.95;;;13.30;99.90;;;-141.84;85.07;20006.91;4976563;28;20302;-61
2023/09/16 04:01:13;;;;;;;8.50;7.78;;;13.30;99.90;;;-141.84;84.81;19988.63;4985670;28;20326;-61
2023/09/16 04:03:43;;;;;;;8.15;7.45;;;13.30;99.90;;;-141.84;84.99;19927.66;4987223;28;20223;-60
2023/09/16 04:06:11;;;;;;;8.02;7.32;;;13.30;99.90;;;-141.84;85.61;19972.38;4987148;28;20662;-60
2023/09/16 04:08:39;;;;;;;9.55;8.55;;;13.30;99.90;;;-141.84;85.49;19992.69;4978771;28;20294;-60
2023/09/16 04:11:11;;;;;;;9.75;8.65;;;13.30;99.90;;;-141.84;85.57;19962.19;4986755;28;20254;-60
2023/09/16 04:13:39;;;;;;;9.63;8.33;;;13.30;99.90;;;-141.84;85.42;19984.56;4985443;28;20339;-61
2023/09/16 04:16:08;;;;;;;9.80;8.90;;;13.30;99.90;;;-141.84;85.73;19956.09;4984627;28;20737;-60
2023/09/16 04:18:36;;;;;;;9.30;8.50;;;13.20;99.90;;;-141.84;85.81;20017.09;4986854;28;20286;-61
2023/09/16 04:21:06;;;;;;;9.20;8.30;;;13.20;99.90;;;-141.84;85.51;19960.16;4969330;28;20204;-60
2023/09/16 04:23:35;;;;;;;9.90;8.90;;;13.20;99.90;;;-141.84;85.70;19966.28;4986917;28;20235;-60
2023/09/16 04:26:08;;;;;;;9.95;9.07;;;13.20;99.90;;;-141.84;85.26;19990.66;4986996;28;20318;-61
2023/09/16 04:28:36;;;;;;;12.57;9.10;;;13.30;99.90;;;-141.84;85.00;19974.41;4977524;28;20242;-61
2023/09/16 04:31:04;;;;;;;9.45;8.55;;;13.30;99.90;;;-141.84;85.40;19974.41;4986424;28;20234;-61
2023/09/16 04:33:33;;;;;;;9.30;8.40;;;13.30;99.90;;;-141.84;85.93;19976.44;4985287;28;20218;-62
2023/09/16 04:36:06;;;;;;;9.63;8.73;;;13.20;99.90;;;-141.84;85.77;19986.59;4987622;28;20621;-60
2023/09/16 04:38:34;;;;;;;10.40;9.30;;;13.20;99.90;;;-141.84;85.78;19950.00;4979193;28;20285;-61
2023/09/16 04:41:06;;;;;;;10.60;9.55;;;13.20;99.90;;;-141.84;86.02;19931.72;4987227;28;20247;-61
2023/09/16 04:43:34;;;;;;;9.93;9.00;;;13.20;99.90;;;-141.84;85.95;19958.13;4984994;28;20239;-59
2023/09/16 04:46:03;;;;;;;10.23;9.23;;;13.20;99.90;;;-141.84;86.08;19947.97;4986291;28;20227;-61
2023/09/16 04:48:32;;;;;;;10.53;9.53;;;13.20;99.90;;;-141.84;86.13;19974.41;4974414;28;20270;-63
2023/09/16 04:51:04;;;;;;;10.65;9.65;;;13.20;99.90;;;-141.84;86.39;19921.56;4987438;28;20322;-61
2023/09/16 04:53:34;;;;;;;10.80;9.70;;;13.20;99.90;;;-141.84;86.66;19933.75;4985582;28;20236;-61
2023/09/16 04:56:05;;;;;;;10.45;9.35;;;13.00;99.90;;;-141.84;86.85;19935.78;4985436;28;20251;-60
2023/09/16 04:58:33;;;;;;;10.30;9.30;;;13.10;99.90;;;-141.84;86.87;19937.81;4978001;28;20231;-61
2023/09/16 05:01:05;;;;;;;9.75;8.77;;;13.10;99.90;;;-141.84;87.00;19950.00;4985493;28;20270;-62
2023/09/16 05:03:33;;;;;;;10.15;9.20;;;13.10;99.90;;;-141.84;87.00;19941.88;4984415;28;20293;-60
2023/09/16 05:06:02;;;;;;;9.82;8.93;;;13.10;99.90;;;-141.84;87.02;19927.66;4987663;28;20203;-61
2023/09/16 05:08:35;;;;;;;10.90;9.80;;;13.10;99.90;;;-141.84;87.15;19929.69;4977927;28;20239;-61
2023/09/16 05:11:03;;;;;;;11.13;9.95;;;13.10;99.90;;;-141.84;86.94;19952.03;4984937;28;20231;-60
2023/09/16 05:13:32;;;;;;;11.20;9.98;;;13.20;99.90;;;-141.84;86.75;19964.25;4985098;28;20235;-62
2023/09/16 05:16:00;;;;;;;11.38;10.27;;;13.20;99.90;;;-141.84;86.72;19984.56;4976860;28;20813;-61
2023/09/16 05:18:28;;;;;;;10.77;9.77;;;13.20;99.90;;;-141.84;86.50;19925.63;4984777;28;20215;-60
2023/09/16 05:20:56;;;;;;;11.50;10.30;;;13.20;99.90;;;-141.84;85.97;19972.38;4983092;28;20348;-61
2023/09/16 05:23:26;;;;;;;10.98;9.80;;;13.20;99.90;;;-141.84;86.47;19970.34;4932557;28;20239;-61
2023/09/16 05:25:55;;;;;;;11.45;10.35;;;13.30;99.90;;;-141.84;86.23;19962.19;4977247;28;20702;-59
2023/09/16 05:28:23;;;;;;;10.68;9.60;;;13.30;99.90;;;-141.84;86.06;19956.09;4985616;28;20579;-60
2023/09/16 05:30:56;;;;;;;11.05;9.77;;;13.40;99.90;;;-141.84;85.86;19968.31;4975730;28;20313;-62
2023/09/16 05:33:25;;;;;;;11.60;10.40;;;13.50;99.90;;;-141.84;85.54;19988.63;4985298;28;20687;-60
2023/09/16 05:35:54;;;;;;;10.80;9.82;;;13.50;99.90;;;-141.84;85.42;19998.78;4985402;28;20223;-60
2023/09/16 05:38:22;;;;;;;11.57;10.38;;;13.60;99.90;;;-141.84;84.62;20061.78;4985644;28;20295;-61
2023/09/16 05:40:50;;;;;;;11.50;10.35;;;13.70;99.90;;;-141.84;84.02;20029.28;4976656;28;20792;-59
2023/09/16 05:43:19;;;;;;;11.10;9.93;;;13.80;99.90;;;-141.84;84.19;20061.78;4984710;28;20249;-60
2023/09/16 05:45:51;;;;;;;10.25;9.35;;;13.90;99.90;;;-141.84;83.49;20033.34;4984837;28;20235;-61
2023/09/16 05:48:21;;;;;;;12.13;10.38;;;13.90;99.90;;;-141.84;83.57;20080.09;4986592;28;20243;-60
2023/09/16 05:50:57;;;;;;;11.85;10.15;;;14.00;99.90;;;-141.84;83.34;20069.94;4975969;28;20503;-59
2023/09/16 05:53:26;;;;;;;11.27;10.07;;;14.10;99.90;;;-141.84;83.45;20047.56;4978296;28;20305;-60
2023/09/16 05:55:54;;;;;;;11.48;10.38;;;14.10;99.90;;;-141.84;83.18;20088.22;4984981;28;20235;-61
2023/09/16 05:58:25;;;;;;;11.18;10.02;;;14.20;99.90;;;-141.84;82.96;20096.34;4984055;28;20673;-60
2023/09/16 06:00:57;;;;;;;10.82;9.73;;;14.30;99.90;;;-141.84;82.38;20124.81;4979927;28;20664;-61
2023/09/16 06:03:27;;;;;;;10.95;9.95;;;14.30;99.90;;;-141.84;82.06;20096.34;4984860;28;20293;-61
2023/09/16 06:05:59;;;;;;;11.68;10.48;;;14.40;99.90;;;-141.84;82.18;20149.19;4984203;28;20258;-62
2023/09/16 06:08:27;;;;;;;12.13;10.60;;;14.40;99.90;;;-141.84;81.89;20130.91;4984283;28;20231;-61
2023/09/16 06:10:56;;;;;;;10.95;9.85;;;14.50;99.90;;;-141.84;81.48;20118.69;4980060;28;20254;-60
2023/09/16 06:13:27;;;;;;;11.93;10.73;;;14.60;99.90;;;-141.84;80.97;20141.06;4963918;28;20713;-60
2023/09/16 06:15:56;;;;;;;11.63;10.60;;;14.70;99.90;;;-141.84;79.97;20200.00;4967563;28;20266;-61
2023/09/16 06:18:24;;;;;;;10.95;9.85;;;14.70;99.90;;;-141.84;79.47;20230.50;4978293;28;20609;-60
2023/09/16 06:20:53;;;;;;;10.77;9.75;;;14.90;99.90;;;-141.84;79.70;20187.81;4974127;28;20290;-59
2023/09/16 06:23:21;;;;;;;11.27;10.10;;;14.90;99.90;;;-141.84;79.58;20210.16;4984492;28;20254;-61
2023/09/16 06:25:50;;;;;;;10.45;9.45;;;14.90;99.90;;;-141.84;79.70;20177.66;4986137;28;20726;-60
2023/09/16 06:28:22;;;;;;;11.48;10.38;;;15.00;99.90;;;-141.84;79.40;20204.06;4983734;28;20311;-60
2023/09/16 06:30:53;;;;;;;11.25;10.15;;;15.00;99.90;;;-141.84;78.59;20254.88;4975671;28;20326;-60
2023/09/16 06:33:24;;;;;;;10.95;9.95;;;15.10;99.90;;;-141.84;77.42;20315.88;4984014;28;20214;-60
2023/09/16 06:35:52;;;;;;;10.63;9.02;;;15.20;99.90;;;-141.84;77.83;20275.22;4984087;28;20672;-60
2023/09/16 06:38:20;;;;;;;10.07;9.07;;;15.20;99.90;;;-141.84;78.27;20254.88;4986357;28;20768;-60
2023/09/16 06:40:48;;;;;;;10.90;9.75;;;15.30;99.90;;;-141.84;78.42;20269.13;4976406;28;20322;-60
2023/09/16 06:43:17;;;;;;;10.70;9.60;;;15.30;99.90;;;-141.84;78.54;20328.06;4984507;28;20322;-61
2023/09/16 06:45:49;;;;;;;10.85;8.60;;;15.40;99.90;;;-141.84;78.41;20309.75;4950693;28;20323;-60
2023/09/16 06:48:20;;;;;;;11.30;9.80;;;15.50;99.90;;;-141.84;78.09;20313.84;4984886;28;20207;-59
2023/09/16 06:50:48;;;;;;;9.68;8.80;;;15.60;99.90;;;-141.84;78.09;20305.69;4975307;28;20715;-62
2023/09/16 06:53:16;;;;;;;9.75;8.85;;;15.60;99.90;;;-141.84;77.99;20354.47;4984835;28;20261;-60
2023/09/16 06:55:44;;;;;;;11.23;10.13;;;15.70;99.90;;;-141.84;76.66;20391.06;4984260;28;20274;-60
2023/09/16 06:58:12;;;;;;;9.52;8.65;;;15.80;99.90;;;-141.84;76.35;20413.44;4982126;28;20325;-60
2023/09/16 07:00:40;;;;;;;8.82;7.95;;;16.00;99.90;;;-141.84;76.52;20384.97;4962605;28;20656;-61
2023/09/16 07:03:09;;;;;;;9.02;8.15;;;16.10;99.90;;;-141.84;76.17;20421.56;4967346;28;20263;-60
2023/09/16 07:05:38;;;;;;;9.15;8.25;;;16.20;99.90;;;-141.84;75.73;20427.66;4966371;28;20235;-60
2023/09/16 07:08:07;;;;;;;8.70;7.85;;;16.30;99.90;;;-141.84;75.47;20450.03;4976557;28;20314;-60
2023/09/16 07:10:35;;;;;;;9.57;8.52;;;16.40;99.90;;;-141.84;74.84;20525.22;4981602;28;20227;-60
2023/09/16 07:13:03;;;;;;;9.35;8.13;;;16.50;99.90;;;-141.84;74.56;20506.94;4987413;28;20271;-61
2023/09/16 07:15:31;;;;;;;7.43;6.78;;;16.60;99.90;;;-141.84;74.33;20555.72;4987106;28;20211;-60
2023/09/16 07:18:00;;;;;;;8.85;8.05;;;16.80;99.90;;;-141.84;73.80;20592.31;4986784;28;20293;-60
2023/09/16 07:20:28;;;;;;;8.57;7.78;;;16.90;99.90;;;-141.84;73.36;20592.31;4985680;28;20271;-60
2023/09/16 07:22:59;;;;;;;8.65;7.82;;;17.00;99.90;;;-141.84;72.78;20641.09;4987021;28;20274;-61
2023/09/16 07:25:30;;;;;;;8.35;7.55;;;17.10;99.90;;;-141.84;72.50;20637.03;4990970;28;20322;-60
2023/09/16 07:28:00;;;;;;;9.15;8.20;;;17.10;99.90;;;-141.84;71.76;20675.66;4990529;28;20250;-60
2023/09/16 07:30:30;;;;;;;9.20;8.30;;;17.20;99.90;;;-141.84;69.99;20744.78;4970040;28;20262;-59
2023/09/16 07:33:01;;;;;;;9.07;8.18;;;17.20;99.90;;;-141.84;70.73;20750.88;4955042;28;20267;-61
2023/09/16 07:35:31;;;;;;;7.35;6.65;;;17.40;99.90;;;-141.84;71.25;20724.44;4989846;28;20721;-60
2023/09/16 07:38:09;;;;;;;10.00;9.02;;;17.50;99.90;;;-141.84;70.57;20769.16;4988506;28;20290;-61
2023/09/16 07:40:41;;;;;;;7.75;7.15;;;17.60;99.90;;;-141.84;70.27;20767.13;4978348;28;20238;-60
2023/09/16 07:43:11;;;;;;;8.10;7.40;;;17.60;99.90;;;-141.84;69.71;20807.78;4987603;28;20243;-60
2023/09/16 07:45:44;;;;;;;7.80;7.00;;;17.70;99.90;;;-141.84;69.97;20826.09;4985541;28;20258;-61
2023/09/16 07:48:14;;;;;;;8.10;7.40;;;17.80;99.90;;;-141.84;69.55;20820.00;4988645;28;20504;-60
2023/09/16 07:50:42;;;;;;;7.28;6.63;;;17.90;99.90;;;-141.84;68.99;20878.94;4978103;28;20270;-61
2023/09/16 07:53:12;;;;;;;8.18;7.38;;;18.00;99.90;;;-141.84;69.12;20850.47;4982680;28;20317;-61
2023/09/16 07:55:40;;;;;;;7.63;6.93;;;18.10;99.90;;;-141.84;68.09;20893.16;4985927;28;20235;-61
2023/09/16 07:58:08;;;;;;;8.75;7.90;;;18.20;99.90;;;-141.84;68.31;20872.84;4978282;28;20241;-66
2023/09/16 08:00:37;;;;;;;8.85;8.05;;;18.20;99.90;;;-141.84;67.79;20933.81;4977545;28;20207;-60
2023/09/16 08:03:05;;;;;;;9.07;8.10;;;18.20;99.90;;;-141.84;67.78;20950.09;4985135;28;20211;-61
2023/09/16 08:05:34;;;;;;;8.65;7.72;;;18.30;99.90;;;-141.84;67.39;20960.25;4983844;28;20620;-60
2023/09/16 08:08:03;;;;;;;7.57;6.90;;;18.40;99.90;;;-141.84;67.30;20960.25;4984881;28;20219;-61
2023/09/16 08:10:32;;;;;;;7.78;7.07;;;18.50;99.90;;;-141.84;67.45;20978.56;4978593;28;20777;-60
2023/09/16 08:13:00;;;;;;;9.43;8.52;;;18.50;99.90;;;-141.84;66.32;21057.84;4985317;28;20227;-59
2023/09/16 08:15:29;;;;;;;9.32;8.43;;;18.70;99.90;;;-141.84;66.85;21045.63;4985799;28;20210;-62
2023/09/16 08:17:57;;;;;;;8.43;7.63;;;18.70;99.90;;;-141.84;66.89;21041.56;4984598;28;20766;-68
2023/09/16 08:20:25;;;;;;;9.27;8.45;;;18.80;99.90;;;-141.84;66.46;21065.97;4966367;28;20258;-65
2023/09/16 08:22:54;;;;;;;8.93;8.07;;;18.90;99.90;;;-141.84;66.48;21106.63;4969325;28;20544;-65
2023/09/16 08:25:22;;;;;;;8.23;7.50;;;18.90;99.90;;;-141.84;66.19;21059.88;4969814;28;20228;-65
2023/09/16 08:27:51;;;;;;;7.97;7.28;;;18.90;99.90;;;-141.84;66.24;21096.47;4980084;28;20335;-65
2023/09/16 08:30:21;;;;;;;8.23;7.50;;;19.00;99.90;;;-141.84;66.19;21098.50;4983783;28;20275;-66
2023/09/16 08:32:49;;;;;;;7.85;7.15;;;19.10;99.90;;;-141.84;66.69;21120.88;4976183;28;20322;-60
2023/09/16 08:35:17;;;;;;;7.20;6.60;;;19.10;99.90;;;-141.84;66.38;21141.19;4984685;28;20235;-61
2023/09/16 08:37:46;;;;;;;8.98;8.13;;;19.20;99.90;;;-141.84;65.77;21173.72;4990684;28;20604;-60
2023/09/16 08:40:15;;;;;;;9.15;8.07;;;19.30;99.90;;;-141.84;65.46;21153.41;4984752;28;20318;-60
2023/09/16 08:42:50;;;;;;;8.10;7.40;;;19.30;99.90;;;-141.84;65.53;21192.03;4977005;28;20749;-63
2023/09/16 08:45:26;;;;;;;8.90;8.10;;;19.40;99.90;;;-141.84;65.16;21163.56;4985599;28;20223;-60
2023/09/16 08:48:03;;;;;;;7.50;6.90;;;19.40;99.90;;;-141.84;65.37;21196.09;4984384;28;20667;-61
2023/09/16 08:50:33;;;;;;;10.23;8.18;;;19.40;99.90;;;-141.84;64.56;21244.88;4976506;28;20227;-59
2023/09/16 08:53:10;;;;;;;8.43;7.60;;;19.60;99.90;;;-141.84;64.60;21240.81;4982353;28;20316;-63
2023/09/16 08:55:38;;;;;;;7.68;6.97;;;19.60;99.90;;;-141.84;64.50;21248.94;4968753;28;20311;-60
2023/09/16 08:58:09;;;;;;;7.50;6.88;;;19.70;99.90;;;-141.84;64.04;21248.94;4984614;28;20683;-61
2023/09/16 09:00:40;;;;;;;8.75;7.85;;;19.80;99.90;;;-141.84;63.93;21281.47;4967307;28;20560;-60
2023/09/16 09:03:09;;;;;;;6.50;5.90;;;19.90;99.90;;;-141.84;63.80;21314.00;4985502;28;20582;-61
2023/09/16 09:05:38;;;;;;;7.47;6.78;;;19.90;99.90;;;-141.84;62.23;21346.53;4974152;28;20227;-61
2023/09/16 09:08:09;;;;;;;8.05;6.82;;;20.00;99.90;;;-141.84;62.06;21340.44;4975664;28;20210;-65
2023/09/16 09:10:37;;;;;;;8.65;6.43;;;20.10;99.90;;;-141.84;62.31;21383.13;4984149;28;20191;-66
2023/09/16 09:13:11;;;;;;;6.15;5.65;;;20.10;99.90;;;-141.84;61.97;21379.06;4984681;28;20200;-66
2023/09/16 09:15:41;;;;;;;6.45;5.82;;;20.20;99.90;;;-141.84;62.09;21372.97;4972600;28;20242;-65
2023/09/16 09:18:13;;;;;;;7.82;7.13;;;20.20;99.90;;;-141.84;62.11;21403.47;4962236;28;20231;-65
2023/09/16 09:20:41;;;;;;;7.80;7.10;;;20.30;99.90;;;-141.84;61.39;21450.22;4983817;28;20319;-66
2023/09/16 09:23:10;;;;;;;6.75;6.15;;;20.30;99.90;;;-141.84;60.84;21433.97;4981419;28;20646;-66
2023/09/16 09:25:41;;;;;;;9.50;7.10;;;20.40;99.90;;;-141.84;60.48;21436.00;4976185;28;20219;-67
2023/09/16 09:28:14;;;;;;;6.80;6.20;;;20.50;99.90;;;-141.84;60.63;21464.47;4976483;28;20269;-66
2023/09/16 09:30:44;;;;;;;8.00;7.28;;;20.50;99.90;;;-141.84;61.08;21472.59;4983199;28;20234;-65
2023/09/16 09:33:14;;;;;;;7.05;6.45;;;20.60;99.90;;;-141.84;60.65;21480.72;4983144;28;20267;-66
2023/09/16 09:35:43;;;;;;;8.63;6.45;;;20.60;99.90;;;-141.84;60.54;21515.28;4983761;28;20307;-66
2023/09/16 09:38:14;;;;;;;7.05;5.68;;;20.70;99.90;;;-141.84;60.34;21523.44;4976186;28;20749;-65
2023/09/16 09:40:58;;;;;;;6.40;5.80;;;20.70;99.90;;;-141.84;59.83;21537.66;4978035;28;20294;-66
2023/09/16 09:43:31;;;;;;;6.50;5.90;;;20.80;99.90;;;-141.84;59.23;21562.06;4980792;28;20588;-66
2023/09/16 09:46:01;;;;;;;8.02;6.20;;;20.80;99.90;;;-141.84;59.69;21551.91;4975838;28;20245;-64
2023/09/16 09:48:30;;;;;;;7.35;6.75;;;20.90;99.90;;;-141.84;59.64;21576.28;4983105;28;20482;-66
2023/09/16 09:51:00;;;;;;;6.90;6.30;;;20.90;99.90;;;-141.84;59.85;21582.38;4983700;28;20326;-67
2023/09/16 09:53:30;;;;;;;9.45;8.55;;;21.00;99.90;;;-141.84;58.73;21562.06;4983699;28;20227;-66
2023/09/16 09:55:59;;;;;;;7.43;6.78;;;21.00;99.90;;;-141.84;59.04;21623.06;4975835;28;20575;-68
2023/09/16 09:58:27;;;;;;;7.53;6.82;;;21.00;99.90;;;-141.84;58.22;21643.38;4983475;28;20350;-64
2023/09/16 10:00:56;;;;;;;6.57;5.97;;;21.10;99.90;;;-141.84;58.40;21667.78;4982918;28;20344;-65
2023/09/16 10:03:28;;;;;;;7.80;6.53;;;21.20;99.90;;;-141.84;58.33;21684.06;4984868;28;20254;-65
2023/09/16 10:06:13;;;;;;;7.07;6.40;;;21.30;99.90;;;-141.84;58.11;21661.69;4999415;28;20580;-65
2023/09/16 10:08:42;;;;;;;7.00;6.38;;;21.30;99.90;;;-141.84;58.09;21659.66;4994121;28;20223;-67
2023/09/16 10:11:11;;;;;;;7.53;6.65;;;21.30;99.90;;;-141.84;57.82;21706.44;4982710;28;20203;-66
2023/09/16 10:13:40;;;;;;;7.45;6.65;;;21.30;99.90;;;-141.84;58.05;21702.34;4983596;28;20235;-67
2023/09/16 10:16:09;;;;;;;6.70;5.95;;;21.40;99.90;;;-141.84;58.20;21692.19;4964406;28;20707;-66